Time,TemperatureF,DewpointF,PressureIn,WindDirection,WindDirectionDegrees,WindSpeedMPH,WindSpeedGustMPH,Humidity,HourlyPrecipIn,Conditions,Clouds,dailyrainin,SoftwareType,DateUTC
2013-01-05 00:04:00,40.3,37.9,30.20,ENE,68,0.4,0.4,91,0.00,,,0.00,WUHU216HW,2013-01-05 08:04:00,
2013-01-05 00:09:00,40.3,37.9,30.20,NE,45,0.0,0.4,91,0.00,,,0.00,WUHU216HW,2013-01-05 08:09:00,
2013-01-05 00:14:00,40.3,37.9,30.19,East,90,0.4,1.3,91,0.00,,,0.00,WUHU216HW,2013-01-05 08:14:00,
2013-01-05 00:20:00,40.3,37.9,30.19,ENE,68,0.0,1.3,91,0.00,,,0.00,WUHU216HW,2013-01-05 08:20:00,
2013-01-05 00:25:00,40.1,37.7,30.19,ENE,68,0.0,1.1,91,0.00,,,0.00,WUHU216HW,2013-01-05 08:25:00,
2013-01-05 00:30:00,40.0,37.5,30.19,ENE,68,0.0,0.0,91,0.00,,,0.00,WUHU216HW,2013-01-05 08:30:00,
2013-01-05 00:35:00,40.0,37.5,30.19,ENE,68,0.0,0.0,91,0.00,,,0.00,WUHU216HW,2013-01-05 08:35:00,
2013-01-05 00:40:00,40.0,37.5,30.19,ENE,68,0.2,0.2,91,0.00,,,0.00,WUHU216HW,2013-01-05 08:40:00,
2013-01-05 00:45:00,40.0,37.5,30.19,ENE,68,0.0,0.4,91,0.00,,,0.00,WUHU216HW,2013-01-05 08:45:00,
2013-01-05 00:50:00,40.0,37.5,30.19,ENE,68,0.0,0.4,91,0.00,,,0.00,WUHU216HW,2013-01-05 08:50:00,
2013-01-05 00:55:00,40.0,37.5,30.18,ENE,68,0.0,0.0,91,0.00,,,0.00,WUHU216HW,2013-01-05 08:55:00,
2013-01-05 01:00:00,40.0,37.5,30.18,NNE,23,0.4,0.4,91,0.00,,,0.00,WUHU216HW,2013-01-05 09:00:00,
2013-01-05 01:05:00,40.0,37.5,30.18,NE,45,0.7,0.7,91,0.00,,,0.00,WUHU216HW,2013-01-05 09:05:00,
2013-01-05 01:10:00,40.0,37.5,30.17,NNE,23,0.4,1.8,91,0.00,,,0.00,WUHU216HW,2013-01-05 09:10:00,
2013-01-05 01:15:00,40.0,37.5,30.17,ENE,68,0.0,1.8,91,0.00,,,0.00,WUHU216HW,2013-01-05 09:15:00,
2013-01-05 01:20:00,40.0,37.5,30.17,North,0,0.0,1.1,91,0.00,,,0.00,WUHU216HW,2013-01-05 09:20:00,
2013-01-05 01:25:00,40.0,37.5,30.18,ENE,68,0.4,1.1,91,0.00,,,0.00,WUHU216HW,2013-01-05 09:25:00,
2013-01-05 01:30:00,40.0,37.5,30.18,ENE,68,0.2,1.1,91,0.00,,,0.00,WUHU216HW,2013-01-05 09:30:00,
2013-01-05 01:35:00,40.0,37.5,30.18,ENE,68,0.0,0.2,91,0.00,,,0.00,WUHU216HW,2013-01-05 09:35:00,
2013-01-05 01:40:00,40.0,37.5,30.18,ENE,68,0.0,0.4,91,0.00,,,0.00,WUHU216HW,2013-01-05 09:40:00,
2013-01-05 01:45:00,40.0,37.5,30.19,ENE,68,0.0,0.4,91,0.00,,,0.00,WUHU216HW,2013-01-05 09:45:00,
2013-01-05 01:50:00,39.8,37.4,30.19,NNE,23,0.9,1.6,91,0.00,,,0.00,WUHU216HW,2013-01-05 09:50:00,
2013-01-05 01:55:00,40.0,37.5,30.19,ENE,68,0.0,1.6,91,0.00,,,0.00,WUHU216HW,2013-01-05 09:55:00,
2013-01-05 02:00:00,40.0,37.5,30.19,East,90,0.4,0.9,91,0.00,,,0.00,WUHU216HW,2013-01-05 10:00:00,
2013-01-05 02:05:00,39.8,37.4,30.19,East,90,0.0,0.9,91,0.00,,,0.00,WUHU216HW,2013-01-05 10:05:00,
2013-01-05 02:10:00,40.0,37.5,30.19,ENE,68,0.0,0.0,91,0.00,,,0.00,WUHU216HW,2013-01-05 10:10:00,
2013-01-05 02:15:00,39.8,37.4,30.19,ENE,68,1.1,1.1,91,0.00,,,0.00,WUHU216HW,2013-01-05 10:15:00,
2013-01-05 02:20:00,39.8,37.4,30.19,East,90,0.0,1.1,91,0.00,,,0.00,WUHU216HW,2013-01-05 10:20:00,
2013-01-05 02:25:00,39.8,37.4,30.19,NNW,338,0.9,0.9,91,0.00,,,0.00,WUHU216HW,2013-01-05 10:25:00,
2013-01-05 02:30:00,39.8,37.4,30.20,North,0,0.4,1.1,91,0.00,,,0.00,WUHU216HW,2013-01-05 10:30:00,
2013-01-05 02:35:00,40.0,37.5,30.19,East,90,0.9,1.1,91,0.00,,,0.00,WUHU216HW,2013-01-05 10:35:00,
2013-01-05 02:40:00,40.0,37.5,30.19,ENE,68,0.0,0.9,91,0.00,,,0.00,WUHU216HW,2013-01-05 10:40:00,
2013-01-05 02:45:00,40.0,37.5,30.19,ENE,68,0.0,0.9,91,0.00,,,0.00,WUHU216HW,2013-01-05 10:45:00,
2013-01-05 02:50:00,39.8,37.4,30.19,NE,45,0.0,0.0,91,0.00,,,0.00,WUHU216HW,2013-01-05 10:50:00,
2013-01-05 02:55:00,39.6,37.2,30.19,NE,45,0.0,0.0,91,0.00,,,0.00,WUHU216HW,2013-01-05 10:55:00,
2013-01-05 03:00:00,39.6,37.2,30.19,North,0,0.0,0.0,91,0.00,,,0.00,WUHU216HW,2013-01-05 11:00:00,
2013-01-05 03:05:00,39.6,37.2,30.19,NW,315,1.3,1.3,91,0.00,,,0.00,WUHU216HW,2013-01-05 11:05:00,
2013-01-05 03:10:00,39.6,37.2,30.20,NNE,23,1.1,1.8,91,0.00,,,0.00,WUHU216HW,2013-01-05 11:10:00,
2013-01-05 03:15:00,39.8,37.4,30.20,NE,45,0.0,1.8,91,0.00,,,0.00,WUHU216HW,2013-01-05 11:15:00,
2013-01-05 03:20:00,39.8,37.4,30.20,ENE,68,1.8,2.2,91,0.00,,,0.00,WUHU216HW,2013-01-05 11:20:00,
2013-01-05 03:25:00,39.8,37.4,30.20,ENE,68,0.0,2.2,91,0.00,,,0.00,WUHU216HW,2013-01-05 11:25:00,
2013-01-05 03:30:00,39.8,37.4,30.20,ENE,68,0.0,1.3,91,0.00,,,0.00,WUHU216HW,2013-01-05 11:30:00,
2013-01-05 03:35:00,39.8,37.4,30.20,ENE,68,0.0,0.0,91,0.00,,,0.00,WUHU216HW,2013-01-05 11:35:00,
2013-01-05 03:40:00,39.6,37.2,30.20,ENE,68,0.0,0.7,91,0.00,,,0.00,WUHU216HW,2013-01-05 11:40:00,
2013-01-05 03:45:00,39.6,37.2,30.20,North,0,1.8,2.5,91,0.00,,,0.00,WUHU216HW,2013-01-05 11:45:00,
2013-01-05 03:50:00,39.8,37.4,30.20,NE,45,0.4,2.5,91,0.00,,,0.00,WUHU216HW,2013-01-05 11:50:00,
2013-01-05 03:55:00,40.0,37.5,30.20,SE,135,0.0,1.8,91,0.00,,,0.00,WUHU216HW,2013-01-05 11:55:00,
2013-01-05 04:00:00,39.8,37.4,30.20,NNW,338,0.4,1.1,91,0.00,,,0.00,WUHU216HW,2013-01-05 12:00:00,
2013-01-05 04:05:00,39.8,37.4,30.19,NNE,23,0.9,2.2,91,0.00,,,0.00,WUHU216HW,2013-01-05 12:05:00,
2013-01-05 04:10:00,40.0,37.5,30.19,WNW,293,0.0,2.2,91,0.00,,,0.00,WUHU216HW,2013-01-05 12:10:00,
2013-01-05 04:15:00,40.0,37.5,30.20,ENE,68,0.0,0.2,91,0.00,,,0.00,WUHU216HW,2013-01-05 12:15:00,
2013-01-05 04:20:00,40.0,37.5,30.19,ENE,68,0.0,0.0,91,0.00,,,0.00,WUHU216HW,2013-01-05 12:20:00,
2013-01-05 04:25:00,40.0,37.5,30.19,NE,45,1.1,1.1,91,0.00,,,0.00,WUHU216HW,2013-01-05 12:25:00,
2013-01-05 04:30:00,40.0,37.5,30.19,East,90,0.0,1.1,91,0.00,,,0.00,WUHU216HW,2013-01-05 12:30:00,
2013-01-05 04:35:00,40.0,37.5,30.19,East,90,0.0,0.9,91,0.00,,,0.00,WUHU216HW,2013-01-05 12:35:00,
2013-01-05 04:40:00,40.0,37.5,30.19,West,270,2.0,2.0,91,0.00,,,0.00,WUHU216HW,2013-01-05 12:40:00,
2013-01-05 04:45:00,40.1,37.7,30.19,North,0,0.4,2.0,91,0.00,,,0.00,WUHU216HW,2013-01-05 12:45:00,
2013-01-05 04:50:00,40.1,37.7,30.18,North,0,0.0,1.8,91,0.00,,,0.00,WUHU216HW,2013-01-05 12:50:00,
2013-01-05 04:55:00,40.1,37.7,30.18,ESE,113,0.4,1.8,91,0.00,,,0.00,WUHU216HW,2013-01-05 12:55:00,
2013-01-05 05:00:00,40.1,37.7,30.18,East,90,0.0,1.8,91,0.00,,,0.00,WUHU216HW,2013-01-05 13:00:00,
2013-01-05 05:05:00,40.0,37.5,30.18,East,90,0.0,0.0,91,0.00,,,0.00,WUHU216HW,2013-01-05 13:05:00,
2013-01-05 05:10:00,40.0,37.8,30.19,South,180,2.2,2.5,92,0.00,,,0.00,WUHU216HW,2013-01-05 13:10:00,
2013-01-05 05:15:00,40.0,37.8,30.19,ESE,113,0.7,2.5,92,0.00,,,0.00,WUHU216HW,2013-01-05 13:15:00,
2013-01-05 05:20:00,40.0,37.8,30.19,East,90,0.0,1.6,92,0.00,,,0.00,WUHU216HW,2013-01-05 13:20:00,
2013-01-05 05:25:00,40.0,37.8,30.19,NNE,23,0.9,1.6,92,0.00,,,0.00,WUHU216HW,2013-01-05 13:25:00,
2013-01-05 05:30:00,40.0,37.8,30.19,East,90,0.0,1.1,92,0.00,,,0.00,WUHU216HW,2013-01-05 13:30:00,
2013-01-05 05:35:00,40.0,37.8,30.19,SE,135,0.7,0.7,92,0.00,,,0.00,WUHU216HW,2013-01-05 13:35:00,
2013-01-05 05:40:00,40.0,37.8,30.19,SE,135,0.0,0.7,92,0.00,,,0.00,WUHU216HW,2013-01-05 13:40:00,
2013-01-05 05:45:00,40.0,37.5,30.19,East,90,0.0,0.4,91,0.00,,,0.00,WUHU216HW,2013-01-05 13:45:00,
2013-01-05 05:50:00,40.0,37.8,30.19,East,90,0.0,0.0,92,0.00,,,0.00,WUHU216HW,2013-01-05 13:50:00,
2013-01-05 05:55:00,40.0,37.5,30.19,East,90,0.0,0.0,91,0.00,,,0.00,WUHU216HW,2013-01-05 13:55:00,
2013-01-05 06:00:00,39.8,37.4,30.19,East,90,0.0,0.0,91,0.00,,,0.00,WUHU216HW,2013-01-05 14:00:00,
2013-01-05 06:05:00,39.8,37.6,30.19,North,0,0.0,0.4,92,0.00,,,0.00,WUHU216HW,2013-01-05 14:05:00,
2013-01-05 06:10:00,40.0,37.8,30.19,North,0,0.4,0.4,92,0.00,,,0.00,WUHU216HW,2013-01-05 14:10:00,
2013-01-05 06:15:00,40.0,37.8,30.19,NNE,23,0.0,1.6,92,0.00,,,0.00,WUHU216HW,2013-01-05 14:15:00,
2013-01-05 06:20:00,40.0,37.8,30.19,NE,45,0.0,1.6,92,0.00,,,0.00,WUHU216HW,2013-01-05 14:20:00,
2013-01-05 06:25:00,40.0,37.8,30.19,NW,315,0.0,0.2,92,0.00,,,0.00,WUHU216HW,2013-01-05 14:25:00,
2013-01-05 06:30:00,40.0,37.8,30.19,North,0,0.4,0.4,92,0.00,,,0.00,WUHU216HW,2013-01-05 14:30:00,
2013-01-05 06:35:00,40.1,38.0,30.19,North,0,0.7,0.9,92,0.00,,,0.00,WUHU216HW,2013-01-05 14:35:00,
2013-01-05 06:40:00,40.1,38.0,30.18,North,0,0.0,0.9,92,0.00,,,0.00,WUHU216HW,2013-01-05 14:40:00,
2013-01-05 06:45:00,40.1,38.0,30.19,ENE,68,0.0,0.9,92,0.00,,,0.00,WUHU216HW,2013-01-05 14:45:00,
2013-01-05 06:50:00,40.1,38.0,30.19,NNW,338,0.0,0.0,92,0.00,,,0.00,WUHU216HW,2013-01-05 14:50:00,
2013-01-05 06:55:00,40.1,38.0,30.20,WNW,293,0.9,1.1,92,0.00,,,0.00,WUHU216HW,2013-01-05 14:55:00,
2013-01-05 07:00:00,40.3,38.2,30.20,NNW,338,0.7,1.8,92,0.00,,,0.00,WUHU216HW,2013-01-05 15:00:00,
2013-01-05 07:05:00,40.7,38.5,30.20,NW,315,2.5,2.5,92,0.00,,,0.00,WUHU216HW,2013-01-05 15:05:00,
2013-01-05 07:10:00,40.7,38.5,30.20,NNE,23,1.1,2.5,92,0.00,,,0.00,WUHU216HW,2013-01-05 15:10:00,
2013-01-05 07:15:00,40.7,38.5,30.20,NE,45,0.2,2.5,92,0.00,,,0.00,WUHU216HW,2013-01-05 15:15:00,
2013-01-05 07:20:00,40.7,38.5,30.21,NNE,23,1.3,2.5,92,0.00,,,0.00,WUHU216HW,2013-01-05 15:20:00,
2013-01-05 07:25:00,40.7,38.5,30.20,ENE,68,2.2,2.9,92,0.00,,,0.00,WUHU216HW,2013-01-05 15:25:00,
2013-01-05 07:30:00,40.7,38.5,30.21,East,90,0.0,2.9,92,0.00,,,0.00,WUHU216HW,2013-01-05 15:30:00,
2013-01-05 07:35:00,40.7,38.3,30.21,East,90,0.2,1.1,91,0.00,,,0.00,WUHU216HW,2013-01-05 15:35:00,
2013-01-05 07:40:00,40.7,38.3,30.20,ENE,68,0.9,1.1,91,0.00,,,0.00,WUHU216HW,2013-01-05 15:40:00,
2013-01-05 07:45:00,40.7,38.3,30.20,ENE,68,0.4,1.1,91,0.00,,,0.00,WUHU216HW,2013-01-05 15:45:00,
2013-01-05 07:50:00,40.7,38.3,30.20,ENE,68,0.0,1.1,91,0.00,,,0.00,WUHU216HW,2013-01-05 15:50:00,
2013-01-05 07:55:00,40.7,38.3,30.20,SE,135,0.0,0.0,91,0.00,,,0.00,WUHU216HW,2013-01-05 15:55:00,
2013-01-05 08:00:00,40.7,38.3,30.20,East,90,0.9,0.9,91,0.00,,,0.00,WUHU216HW,2013-01-05 16:00:00,
2013-01-05 08:05:00,40.7,38.3,30.20,ESE,113,2.7,2.7,91,0.00,,,0.00,WUHU216HW,2013-01-05 16:05:00,
2013-01-05 08:10:00,40.9,38.2,30.20,South,180,2.5,2.7,90,0.00,,,0.00,WUHU216HW,2013-01-05 16:10:00,
2013-01-05 08:15:00,41.0,38.3,30.21,ENE,68,0.7,2.5,90,0.00,,,0.00,WUHU216HW,2013-01-05 16:15:00,
2013-01-05 08:20:00,41.0,38.3,30.20,ENE,68,0.4,0.7,90,0.00,,,0.00,WUHU216HW,2013-01-05 16:20:00,
2013-01-05 08:25:00,41.0,38.3,30.20,WSW,248,0.0,0.4,90,0.00,,,0.00,WUHU216HW,2013-01-05 16:25:00,
2013-01-05 08:30:00,41.0,38.3,30.20,WSW,248,1.3,1.3,90,0.00,,,0.00,WUHU216HW,2013-01-05 16:30:00,
2013-01-05 08:35:00,41.6,38.9,30.21,North,0,3.8,3.8,90,0.00,,,0.00,WUHU216HW,2013-01-05 16:35:00,
2013-01-05 08:40:00,41.8,39.1,30.21,ESE,113,0.4,3.8,90,0.00,,,0.00,WUHU216HW,2013-01-05 16:40:00,
2013-01-05 08:45:00,41.8,39.1,30.21,ESE,113,0.0,2.2,90,0.00,,,0.00,WUHU216HW,2013-01-05 16:45:00,
2013-01-05 08:50:00,41.6,38.9,30.21,North,0,1.6,1.6,90,0.00,,,0.00,WUHU216HW,2013-01-05 16:50:00,
2013-01-05 08:55:00,41.6,38.6,30.21,NE,45,0.0,1.6,89,0.00,,,0.00,WUHU216HW,2013-01-05 16:55:00,
2013-01-05 09:00:00,41.8,38.8,30.21,South,180,3.4,3.4,89,0.00,,,0.00,WUHU216HW,2013-01-05 17:00:00,
2013-01-05 09:05:00,41.8,39.1,30.22,SW,225,1.8,3.8,90,0.00,,,0.00,WUHU216HW,2013-01-05 17:05:00,
2013-01-05 09:10:00,41.9,39.0,30.22,NW,315,0.4,3.8,89,0.00,,,0.00,WUHU216HW,2013-01-05 17:10:00,
2013-01-05 09:15:00,42.1,39.4,30.22,NNW,338,0.0,2.9,90,0.00,,,0.00,WUHU216HW,2013-01-05 17:15:00,
2013-01-05 09:20:00,41.9,39.2,30.22,ENE,68,0.7,1.6,90,0.00,,,0.00,WUHU216HW,2013-01-05 17:20:00,
2013-01-05 09:25:00,41.9,39.2,30.22,NNE,23,0.0,0.7,90,0.00,,,0.00,WUHU216HW,2013-01-05 17:25:00,
2013-01-05 09:30:00,41.9,39.2,30.23,ENE,68,0.0,1.1,90,0.00,,,0.00,WUHU216HW,2013-01-05 17:30:00,
2013-01-05 09:35:00,41.9,39.2,30.23,North,0,1.8,1.8,90,0.00,,,0.00,WUHU216HW,2013-01-05 17:35:00,
2013-01-05 09:40:00,41.9,39.2,30.22,North,0,0.9,1.8,90,0.00,,,0.00,WUHU216HW,2013-01-05 17:40:00,
2013-01-05 09:45:00,41.9,39.2,30.22,NE,45,1.8,1.8,90,0.00,,,0.00,WUHU216HW,2013-01-05 17:45:00,
2013-01-05 09:50:00,41.9,39.2,30.22,NE,45,0.0,1.8,90,0.00,,,0.00,WUHU216HW,2013-01-05 17:50:00,
2013-01-05 09:55:00,42.1,39.4,30.23,NE,45,0.0,1.8,90,0.00,,,0.00,WUHU216HW,2013-01-05 17:55:00,
2013-01-05 10:00:00,42.3,39.6,30.23,NE,45,0.4,0.9,90,0.00,,,0.00,WUHU216HW,2013-01-05 18:00:00,
2013-01-05 10:05:00,42.5,39.8,30.23,ESE,113,0.2,0.9,90,0.00,,,0.00,WUHU216HW,2013-01-05 18:05:00,
2013-01-05 10:10:00,42.7,40.0,30.23,South,180,0.9,1.3,90,0.00,,,0.00,WUHU216HW,2013-01-05 18:10:00,
2013-01-05 10:15:00,42.7,40.0,30.24,ENE,68,1.1,1.3,90,0.00,,,0.00,WUHU216HW,2013-01-05 18:15:00,
2013-01-05 10:20:00,42.7,40.0,30.23,NNE,23,0.9,1.8,90,0.00,,,0.00,WUHU216HW,2013-01-05 18:20:00,
2013-01-05 10:25:00,42.8,40.1,30.23,South,180,0.0,1.8,90,0.00,,,0.00,WUHU216HW,2013-01-05 18:25:00,
2013-01-05 10:30:00,42.8,40.1,30.23,South,180,0.0,0.0,90,0.00,,,0.00,WUHU216HW,2013-01-05 18:30:00,
2013-01-05 10:35:00,43.0,40.3,30.23,East,90,0.0,0.0,90,0.00,,,0.00,WUHU216HW,2013-01-05 18:35:00,
2013-01-05 10:40:00,43.2,40.5,30.23,East,90,0.0,0.0,90,0.00,,,0.00,WUHU216HW,2013-01-05 18:40:00,
2013-01-05 10:45:00,43.4,40.7,30.23,ESE,113,0.0,0.0,90,0.00,,,0.00,WUHU216HW,2013-01-05 18:45:00,
2013-01-05 10:50:00,43.6,40.9,30.23,SSE,158,0.0,0.0,90,0.00,,,0.00,WUHU216HW,2013-01-05 18:50:00,
2013-01-05 10:55:00,43.6,40.9,30.23,ESE,113,1.6,1.6,90,0.00,,,0.00,WUHU216HW,2013-01-05 18:55:00,
2013-01-05 11:00:00,43.4,40.7,30.22,ESE,113,0.4,2.7,90,0.00,,,0.00,WUHU216HW,2013-01-05 19:00:00,
2013-01-05 11:05:00,43.6,40.9,30.22,ESE,113,0.0,2.7,90,0.00,,,0.00,WUHU216HW,2013-01-05 19:05:00,
2013-01-05 11:10:00,43.6,40.6,30.22,ESE,113,0.7,2.2,89,0.00,,,0.00,WUHU216HW,2013-01-05 19:10:00,
2013-01-05 11:15:00,43.6,40.2,30.21,East,90,1.6,3.8,88,0.00,,,0.00,WUHU216HW,2013-01-05 19:15:00,
2013-01-05 11:20:00,43.6,40.0,30.21,SSE,158,0.9,3.8,87,0.00,,,0.00,WUHU216HW,2013-01-05 19:20:00,
2013-01-05 11:25:00,44.1,38.6,30.21,SSE,158,1.1,3.6,81,0.00,,,0.00,WUHU216HW,2013-01-05 19:25:00,
2013-01-05 11:30:00,44.3,39.2,30.21,ENE,68,0.9,3.6,82,0.00,,,0.00,WUHU216HW,2013-01-05 19:30:00,
2013-01-05 11:35:00,44.8,40.0,30.21,SE,135,0.0,1.1,83,0.00,,,0.00,WUHU216HW,2013-01-05 19:35:00,
2013-01-05 11:40:00,45.4,40.9,30.21,SE,135,0.0,1.1,84,0.00,,,0.00,WUHU216HW,2013-01-05 19:40:00,
2013-01-05 11:45:00,45.7,41.5,30.21,ESE,113,1.1,1.1,85,0.00,,,0.00,WUHU216HW,2013-01-05 19:45:00,
2013-01-05 11:50:00,45.9,40.8,30.21,SSW,203,0.7,1.3,82,0.00,,,0.00,WUHU216HW,2013-01-05 19:50:00,
2013-01-05 11:55:00,45.9,41.0,30.21,ENE,68,0.4,1.8,83,0.00,,,0.00,WUHU216HW,2013-01-05 19:55:00,
2013-01-05 12:00:00,46.3,41.1,30.20,ENE,68,0.0,1.8,82,0.00,,,0.00,WUHU216HW,2013-01-05 20:00:00,
2013-01-05 12:05:00,46.4,41.3,30.20,SSE,158,0.4,1.6,82,0.00,,,0.00,WUHU216HW,2013-01-05 20:05:00,
2013-01-05 12:10:00,46.4,40.3,30.20,SE,135,0.9,1.6,79,0.00,,,0.00,WUHU216HW,2013-01-05 20:10:00,
2013-01-05 12:15:00,46.4,40.3,30.20,South,180,0.0,2.2,79,0.00,,,0.00,WUHU216HW,2013-01-05 20:15:00,
2013-01-05 12:20:00,46.3,39.5,30.20,SSE,158,0.7,3.6,77,0.00,,,0.00,WUHU216HW,2013-01-05 20:20:00,
2013-01-05 12:25:00,46.3,39.5,30.20,SSE,158,1.1,3.6,77,0.00,,,0.00,WUHU216HW,2013-01-05 20:25:00,
2013-01-05 12:30:00,46.1,39.3,30.20,SE,135,1.1,2.0,77,0.00,,,0.00,WUHU216HW,2013-01-05 20:30:00,
2013-01-05 12:35:00,46.1,40.0,30.20,ESE,113,2.0,2.0,79,0.00,,,0.00,WUHU216HW,2013-01-05 20:35:00,
2013-01-05 12:40:00,46.1,40.0,30.20,ESE,113,0.4,2.0,79,0.00,,,0.00,WUHU216HW,2013-01-05 20:40:00,
2013-01-05 12:45:00,46.3,40.1,30.20,SE,135,1.1,2.0,79,0.00,,,0.00,WUHU216HW,2013-01-05 20:45:00,
2013-01-05 12:50:00,46.4,40.3,30.19,South,180,2.0,2.0,79,0.00,,,0.00,WUHU216HW,2013-01-05 20:50:00,
2013-01-05 12:55:00,46.3,39.8,30.20,SE,135,2.0,2.0,78,0.00,,,0.00,WUHU216HW,2013-01-05 20:55:00,
2013-01-05 13:00:00,46.3,39.8,30.19,SE,135,0.0,2.0,78,0.00,,,0.00,WUHU216HW,2013-01-05 21:00:00,
2013-01-05 13:05:00,46.4,40.3,30.19,SSE,158,1.1,1.8,79,0.00,,,0.00,WUHU216HW,2013-01-05 21:05:00,
2013-01-05 13:10:00,46.3,40.1,30.19,SSE,158,2.0,2.0,79,0.00,,,0.00,WUHU216HW,2013-01-05 21:10:00,
2013-01-05 13:15:00,46.3,40.5,30.19,SE,135,0.0,2.0,80,0.00,,,0.00,WUHU216HW,2013-01-05 21:15:00,
2013-01-05 13:20:00,46.4,40.7,30.19,SE,135,0.2,0.9,80,0.00,,,0.00,WUHU216HW,2013-01-05 21:20:00,
2013-01-05 13:25:00,46.4,40.7,30.18,SE,135,0.0,0.4,80,0.00,,,0.00,WUHU216HW,2013-01-05 21:25:00,
2013-01-05 13:30:00,46.4,41.0,30.17,SE,135,0.4,0.4,81,0.00,,,0.00,WUHU216HW,2013-01-05 21:30:00,
2013-01-05 13:35:00,46.6,41.1,30.18,SE,135,0.0,0.4,81,0.00,,,0.00,WUHU216HW,2013-01-05 21:35:00,
2013-01-05 13:40:00,46.6,40.5,30.17,South,180,1.8,1.8,79,0.00,,,0.00,WUHU216HW,2013-01-05 21:40:00,
2013-01-05 13:45:00,46.6,40.9,30.17,South,180,1.8,1.8,80,0.00,,,0.00,WUHU216HW,2013-01-05 21:45:00,
2013-01-05 13:50:00,46.6,40.5,30.17,SE,135,0.2,2.5,79,0.00,,,0.00,WUHU216HW,2013-01-05 21:50:00,
2013-01-05 13:55:00,46.4,40.3,30.17,South,180,2.2,2.5,79,0.00,,,0.00,WUHU216HW,2013-01-05 21:55:00,
2013-01-05 14:00:00,46.6,40.5,30.17,SSW,203,0.0,3.4,79,0.00,,,0.00,WUHU216HW,2013-01-05 22:00:00,
2013-01-05 14:05:00,46.8,40.7,30.16,West,270,0.2,3.4,79,0.00,,,0.00,WUHU216HW,2013-01-05 22:05:00,
2013-01-05 14:10:00,46.8,40.0,30.16,NNW,338,0.4,0.9,77,0.00,,,0.00,WUHU216HW,2013-01-05 22:10:00,
2013-01-05 14:15:00,46.8,40.3,30.16,North,0,1.8,1.8,78,0.00,,,0.00,WUHU216HW,2013-01-05 22:15:00,
2013-01-05 14:20:00,46.8,40.3,30.16,SW,225,1.8,1.8,78,0.00,,,0.00,WUHU216HW,2013-01-05 22:20:00,
2013-01-05 14:26:00,46.8,40.0,30.16,South,180,2.7,2.7,77,0.00,,,0.00,WUHU216HW,2013-01-05 22:26:00,
2013-01-05 14:31:00,46.8,40.0,30.16,SSW,203,1.6,2.7,77,0.00,,,0.00,WUHU216HW,2013-01-05 22:31:00,
2013-01-05 14:36:00,46.6,39.2,30.16,SE,135,1.1,2.7,75,0.00,,,0.00,WUHU216HW,2013-01-05 22:36:00,
2013-01-05 14:41:00,46.4,38.6,30.16,SSW,203,4.7,4.7,74,0.00,,,0.00,WUHU216HW,2013-01-05 22:41:00,
2013-01-05 14:46:00,46.4,39.3,30.17,WSW,248,2.7,4.7,76,0.00,,,0.00,WUHU216HW,2013-01-05 22:46:00,
2013-01-05 14:51:00,46.4,39.7,30.17,North,0,1.1,3.1,77,0.00,,,0.00,WUHU216HW,2013-01-05 22:51:00,
2013-01-05 14:56:00,46.4,39.7,30.17,NNE,23,2.5,2.7,77,0.00,,,0.00,WUHU216HW,2013-01-05 22:56:00,
2013-01-05 15:01:00,46.4,39.7,30.17,NNE,23,0.0,2.5,77,0.00,,,0.00,WUHU216HW,2013-01-05 23:01:00,
2013-01-05 15:06:00,46.4,39.7,30.17,ESE,113,0.0,1.6,77,0.00,,,0.00,WUHU216HW,2013-01-05 23:06:00,
2013-01-05 15:11:00,46.3,39.8,30.17,NE,45,0.7,1.1,78,0.00,,,0.00,WUHU216HW,2013-01-05 23:11:00,
2013-01-05 15:16:00,46.1,39.3,30.16,SSE,158,0.2,1.1,77,0.00,,,0.00,WUHU216HW,2013-01-05 23:16:00,
2013-01-05 15:21:00,46.1,39.6,30.16,South,180,0.7,1.1,78,0.00,,,0.00,WUHU216HW,2013-01-05 23:21:00,
2013-01-05 15:26:00,45.9,39.8,30.16,ENE,68,0.0,0.7,79,0.00,,,0.00,WUHU216HW,2013-01-05 23:26:00,
2013-01-05 15:31:00,45.9,39.8,30.16,SW,225,1.1,1.1,79,0.00,,,0.00,WUHU216HW,2013-01-05 23:31:00,
2013-01-05 15:36:00,45.5,39.4,30.16,ENE,68,0.7,1.1,79,0.00,,,0.00,WUHU216HW,2013-01-05 23:36:00,
2013-01-05 15:41:00,45.4,39.2,30.16,SSE,158,0.0,1.1,79,0.00,,,0.00,WUHU216HW,2013-01-05 23:41:00,
2013-01-05 15:46:00,45.2,39.1,30.16,ENE,68,1.1,1.1,79,0.00,,,0.00,WUHU216HW,2013-01-05 23:46:00,
2013-01-05 15:51:00,45.0,38.9,30.16,NE,45,1.1,1.6,79,0.00,,,0.00,WUHU216HW,2013-01-05 23:51:00,
2013-01-05 15:56:00,44.8,38.7,30.16,NNE,23,0.9,1.6,79,0.00,,,0.00,WUHU216HW,2013-01-05 23:56:00,
2013-01-05 16:01:00,44.8,38.7,30.16,ENE,68,0.7,1.1,79,0.00,,,0.00,WUHU216HW,2013-01-06 00:01:00,
2013-01-05 16:06:00,44.6,38.5,30.16,SE,135,0.7,0.9,79,0.00,,,0.00,WUHU216HW,2013-01-06 00:06:00,
2013-01-05 16:11:00,44.5,38.7,30.16,NNE,23,1.8,2.5,80,0.00,,,0.00,WUHU216HW,2013-01-06 00:11:00,
2013-01-05 16:16:00,44.3,38.5,30.15,WNW,293,0.0,2.5,80,0.00,,,0.00,WUHU216HW,2013-01-06 00:16:00,
2013-01-05 16:21:00,43.9,38.4,30.15,East,90,1.3,1.3,81,0.00,,,0.00,WUHU216HW,2013-01-06 00:21:00,
2013-01-05 16:26:00,43.7,38.3,30.16,East,90,1.1,1.3,81,0.00,,,0.00,WUHU216HW,2013-01-06 00:26:00,
2013-01-05 16:31:00,43.6,38.1,30.16,East,90,0.0,1.3,81,0.00,,,0.00,WUHU216HW,2013-01-06 00:31:00,
2013-01-05 16:36:00,43.2,38.1,30.15,East,90,1.1,1.1,82,0.00,,,0.00,WUHU216HW,2013-01-06 00:36:00,
2013-01-05 16:41:00,43.0,37.9,30.15,ENE,68,1.3,1.3,82,0.00,,,0.00,WUHU216HW,2013-01-06 00:41:00,
2013-01-05 16:46:00,42.8,37.7,30.14,ENE,68,0.7,1.8,82,0.00,,,0.00,WUHU216HW,2013-01-06 00:46:00,
2013-01-05 16:51:00,42.8,37.7,30.14,ENE,68,1.1,1.8,82,0.02,,,0.02,WUHU216HW,2013-01-06 00:51:00,
2013-01-05 16:56:00,42.7,37.5,30.14,ENE,68,1.3,1.3,82,0.02,,,0.02,WUHU216HW,2013-01-06 00:56:00,
2013-01-05 17:01:00,42.7,37.8,30.14,ENE,68,0.7,1.3,83,0.02,,,0.02,WUHU216HW,2013-01-06 01:01:00,
2013-01-05 17:06:00,42.5,37.6,30.14,East,90,0.4,1.3,83,0.02,,,0.02,WUHU216HW,2013-01-06 01:06:00,
2013-01-05 17:11:00,42.5,38.0,30.14,NE,45,10.3,10.3,84,0.02,,,0.02,WUHU216HW,2013-01-06 01:11:00,
2013-01-05 17:16:00,42.5,38.0,30.14,NE,45,10.3,10.3,84,0.02,,,0.02,WUHU216HW,2013-01-06 01:16:00,
2013-01-05 17:21:00,42.5,38.0,30.14,NE,45,10.3,10.3,84,0.02,,,0.02,WUHU216HW,2013-01-06 01:21:00,
2013-01-05 17:26:00,42.5,38.0,30.14,NE,45,10.3,10.3,84,0.02,,,0.02,WUHU216HW,2013-01-06 01:26:00,
2013-01-05 17:31:00,42.5,38.0,30.14,NE,45,10.3,10.3,84,0.02,,,0.02,WUHU216HW,2013-01-06 01:31:00,
2013-01-05 18:33:00,42.7,38.4,30.15,NE,45,1.6,2.9,85,0.00,,,0.02,WUHU216HW,2013-01-06 02:33:00,
2013-01-05 18:38:00,42.8,38.6,30.15,NE,45,0.9,2.5,85,0.00,,,0.02,WUHU216HW,2013-01-06 02:38:00,
2013-01-05 18:43:00,42.7,38.4,30.15,ENE,68,1.1,1.8,85,0.00,,,0.02,WUHU216HW,2013-01-06 02:43:00,
2013-01-05 18:48:00,42.5,38.3,30.15,NNE,23,1.8,1.8,85,0.00,,,0.02,WUHU216HW,2013-01-06 02:48:00,
2013-01-05 18:53:00,42.1,37.9,30.15,NE,45,0.7,1.8,85,0.00,,,0.02,WUHU216HW,2013-01-06 02:53:00,
2013-01-05 18:58:00,42.1,37.9,30.15,ENE,68,0.2,1.8,85,0.00,,,0.02,WUHU216HW,2013-01-06 02:58:00,
2013-01-05 19:03:00,41.9,37.7,30.15,ENE,68,0.9,1.6,85,0.00,,,0.02,WUHU216HW,2013-01-06 03:03:00,
2013-01-05 19:08:00,41.9,37.7,30.15,NE,45,1.8,2.0,85,0.00,,,0.02,WUHU216HW,2013-01-06 03:08:00,
2013-01-05 19:13:00,41.8,37.5,30.15,ENE,68,0.7,2.0,85,0.00,,,0.02,WUHU216HW,2013-01-06 03:13:00,
2013-01-05 19:18:00,41.8,37.5,30.15,ENE,68,0.4,1.3,85,0.00,,,0.02,WUHU216HW,2013-01-06 03:18:00,
2013-01-05 19:23:00,41.8,37.3,30.15,ENE,68,1.1,1.1,84,0.00,,,0.02,WUHU216HW,2013-01-06 03:23:00,
2013-01-05 19:28:00,41.6,37.1,30.15,NE,45,0.9,1.1,84,0.00,,,0.02,WUHU216HW,2013-01-06 03:28:00,
2013-01-05 19:33:00,41.6,37.1,30.15,SE,135,0.4,0.9,84,0.00,,,0.02,WUHU216HW,2013-01-06 03:33:00,
2013-01-05 19:38:00,41.6,37.1,30.15,NNE,23,0.0,0.7,84,0.00,,,0.02,WUHU216HW,2013-01-06 03:38:00,
2013-01-05 19:43:00,41.6,37.1,30.15,SW,225,0.0,0.7,84,0.00,,,0.02,WUHU216HW,2013-01-06 03:43:00,
2013-01-05 19:48:00,41.8,37.5,30.15,East,90,0.0,1.1,85,0.00,,,0.02,WUHU216HW,2013-01-06 03:48:00,
2013-01-05 19:53:00,41.8,37.5,30.15,East,90,0.0,1.1,85,0.00,,,0.02,WUHU216HW,2013-01-06 03:53:00,
2013-01-05 19:58:00,41.6,37.1,30.15,East,90,0.0,0.0,84,0.00,,,0.02,WUHU216HW,2013-01-06 03:58:00,
2013-01-05 20:03:00,41.6,37.1,30.15,NW,315,0.0,0.0,84,0.00,,,0.02,WUHU216HW,2013-01-06 04:03:00,
2013-01-05 20:08:00,41.4,36.9,30.16,North,0,0.0,0.2,84,0.00,,,0.02,WUHU216HW,2013-01-06 04:08:00,
2013-01-05 20:13:00,41.4,36.9,30.15,NNE,23,0.4,1.6,84,0.00,,,0.02,WUHU216HW,2013-01-06 04:13:00,
2013-01-05 20:18:00,41.6,37.1,30.15,East,90,0.7,1.6,84,0.00,,,0.02,WUHU216HW,2013-01-06 04:18:00,
2013-01-05 20:23:00,41.6,37.4,30.15,ENE,68,0.9,1.3,85,0.00,,,0.02,WUHU216HW,2013-01-06 04:23:00,
2013-01-05 20:28:00,41.6,37.4,30.15,ENE,68,1.8,1.8,85,0.00,,,0.02,WUHU216HW,2013-01-06 04:28:00,
2013-01-05 20:33:00,41.8,37.8,30.15,East,90,2.0,2.2,86,0.00,,,0.02,WUHU216HW,2013-01-06 04:33:00,
2013-01-05 20:38:00,41.8,37.5,30.15,ESE,113,0.4,2.2,85,0.00,,,0.02,WUHU216HW,2013-01-06 04:38:00,
2013-01-05 20:43:00,41.8,37.5,30.15,East,90,0.9,1.1,85,0.00,,,0.02,WUHU216HW,2013-01-06 04:43:00,
2013-01-05 20:48:00,41.8,37.8,30.15,ESE,113,1.1,1.1,86,0.00,,,0.02,WUHU216HW,2013-01-06 04:48:00,
2013-01-05 20:53:00,41.6,37.4,30.16,East,90,0.7,1.1,85,0.00,,,0.02,WUHU216HW,2013-01-06 04:53:00,
2013-01-05 20:58:00,41.4,37.2,30.16,ENE,68,0.9,1.1,85,0.00,,,0.02,WUHU216HW,2013-01-06 04:58:00,
2013-01-05 21:03:00,41.4,37.4,30.16,ENE,68,1.6,2.2,86,0.00,,,0.02,WUHU216HW,2013-01-06 05:03:00,
2013-01-05 21:08:00,41.4,37.4,30.16,ESE,113,1.1,2.2,86,0.00,,,0.02,WUHU216HW,2013-01-06 05:08:00,
2013-01-05 21:13:00,41.4,37.4,30.15,East,90,0.4,1.8,86,0.00,,,0.02,WUHU216HW,2013-01-06 05:13:00,
2013-01-05 21:18:00,41.2,37.3,30.16,East,90,0.4,1.6,86,0.00,,,0.02,WUHU216HW,2013-01-06 05:18:00,
2013-01-05 21:23:00,41.2,37.6,30.16,ENE,68,0.7,1.3,87,0.00,,,0.02,WUHU216HW,2013-01-06 05:23:00,
2013-01-05 21:28:00,41.0,37.5,30.16,ESE,113,0.9,1.3,87,0.02,,,0.04,WUHU216HW,2013-01-06 05:28:00,
2013-01-05 21:33:00,41.0,37.5,30.16,ESE,113,1.1,1.3,87,0.02,,,0.04,WUHU216HW,2013-01-06 05:33:00,
2013-01-05 21:38:00,41.0,37.7,30.16,ENE,68,1.3,1.8,88,0.03,,,0.05,WUHU216HW,2013-01-06 05:38:00,
2013-01-05 21:43:00,41.2,37.9,30.16,ENE,68,0.7,1.8,88,0.03,,,0.05,WUHU216HW,2013-01-06 05:43:00,
2013-01-05 21:48:00,41.4,38.4,30.16,East,90,0.4,1.8,89,0.04,,,0.06,WUHU216HW,2013-01-06 05:48:00,
2013-01-05 21:53:00,41.4,38.4,30.16,SE,135,0.4,2.7,89,0.04,,,0.06,WUHU216HW,2013-01-06 05:53:00,
2013-01-05 21:58:00,41.4,38.7,30.16,ENE,68,1.6,2.9,90,0.05,,,0.07,WUHU216HW,2013-01-06 05:58:00,
2013-01-05 22:03:00,41.6,38.9,30.16,East,90,0.4,2.9,90,0.06,,,0.08,WUHU216HW,2013-01-06 06:03:00,
2013-01-05 22:08:00,41.6,38.9,30.17,ENE,68,2.9,2.9,90,0.07,,,0.09,WUHU216HW,2013-01-06 06:08:00,
2013-01-05 22:13:00,41.6,38.9,30.16,ENE,68,1.3,2.9,90,0.07,,,0.09,WUHU216HW,2013-01-06 06:13:00,
2013-01-05 22:18:00,41.8,39.1,30.16,East,90,2.0,2.9,90,0.07,,,0.09,WUHU216HW,2013-01-06 06:18:00,
2013-01-05 22:23:00,41.6,38.9,30.16,ESE,113,1.6,2.2,90,0.07,,,0.09,WUHU216HW,2013-01-06 06:23:00,
2013-01-05 22:28:00,41.6,39.2,30.16,NNE,23,1.3,3.8,91,0.07,,,0.11,WUHU216HW,2013-01-06 06:28:00,
2013-01-05 22:33:00,41.6,39.2,30.15,East,90,3.4,4.3,91,0.07,,,0.11,WUHU216HW,2013-01-06 06:33:00,
2013-01-05 22:38:00,41.8,39.3,30.16,ENE,68,1.8,4.3,91,0.06,,,0.11,WUHU216HW,2013-01-06 06:38:00,
2013-01-05 22:43:00,41.6,39.2,30.16,SE,135,3.6,3.6,91,0.07,,,0.12,WUHU216HW,2013-01-06 06:43:00,
2013-01-05 22:48:00,41.6,39.2,30.16,SE,135,3.4,4.7,91,0.06,,,0.12,WUHU216HW,2013-01-06 06:48:00,
2013-01-05 22:53:00,41.8,39.6,30.16,SE,135,2.5,4.7,92,0.05,,,0.12,WUHU216HW,2013-01-06 06:53:00,
2013-01-05 22:58:00,41.8,39.6,30.16,East,90,3.8,4.7,92,0.05,,,0.12,WUHU216HW,2013-01-06 06:58:00,
2013-01-05 23:03:00,41.8,39.6,30.17,NE,45,3.8,3.8,92,0.04,,,0.12,WUHU216HW,2013-01-06 07:03:00,
2013-01-05 23:08:00,41.8,39.6,30.17,ESE,113,3.4,3.8,92,0.03,,,0.12,WUHU216HW,2013-01-06 07:08:00,
2013-01-05 23:13:00,41.8,39.6,30.17,ESE,113,4.5,4.5,92,0.03,,,0.12,WUHU216HW,2013-01-06 07:13:00,
2013-01-05 23:18:00,41.8,39.9,30.17,SE,135,3.1,4.5,93,0.03,,,0.12,WUHU216HW,2013-01-06 07:18:00,
2013-01-05 23:23:00,42.1,40.2,30.16,SSE,158,4.7,5.4,93,0.03,,,0.12,WUHU216HW,2013-01-06 07:23:00,
2013-01-05 23:28:00,42.1,40.2,30.16,East,90,0.9,5.4,93,0.01,,,0.12,WUHU216HW,2013-01-06 07:28:00,
2013-01-05 23:33:00,42.1,40.2,30.17,SE,135,2.0,3.6,93,0.01,,,0.12,WUHU216HW,2013-01-06 07:33:00,
2013-01-05 23:38:00,42.1,40.2,30.17,ENE,68,1.8,2.0,93,0.00,,,0.12,WUHU216HW,2013-01-06 07:38:00,
2013-01-05 23:43:00,42.1,40.2,30.17,SE,135,0.4,1.8,93,0.00,,,0.12,WUHU216HW,2013-01-06 07:43:00,
2013-01-05 23:48:00,42.1,40.2,30.17,South,180,0.9,1.8,93,0.00,,,0.12,WUHU216HW,2013-01-06 07:48:00,
2013-01-05 23:53:00,42.1,40.2,30.18,SE,135,1.3,1.3,93,0.00,,,0.12,WUHU216HW,2013-01-06 07:53:00,
2013-01-05 23:58:00,42.1,40.2,30.18,ESE,113,0.0,1.3,93,0.00,,,0.12,WUHU216HW,2013-01-06 07:58:00,